Time;durP1;ratioP1;P1;durP2;ratioP2;P2;SDS_P1;SDS_P2;PMS_P1;PMS_P2;Temp;Humidity;BMP_temperature;BMP_pressure;BME280_temperature;BME280_humidity;BME280_pressure;Samples;Min_cycle;Max_cycle;Signal;HPM_P1;HPM_P2
2022/01/24 00:04:54;;;;;;;104.43;6.50;;;;;;;21.16;36.73;98357.22;13046390;22;20019;-54
2022/01/24 00:10:19;;;;;;;1.50;0.95;;;;;;;21.13;36.88;98353.22;13046774;22;20049;-55
2022/01/24 00:26:55;;;;;;;1.20;0.80;;;;;;;21.10;36.99;98348.38;13067161;22;20011;-55
2022/01/24 00:32:15;;;;;;;1.10;1.00;;;;;;;21.08;36.93;98349.78;13046219;22;20376;-53
2022/01/24 00:37:34;;;;;;;1.45;0.90;;;;;;;21.05;37.01;98343.06;13046465;22;20021;-53
2022/01/24 00:42:57;;;;;;;1.08;0.93;;;;;;;21.04;36.97;98327.91;13045888;22;20021;-53
2022/01/24 00:54:42;;;;;;;1.90;0.93;;;;;;;21.02;37.07;98332.81;13066018;22;20022;-54
2022/01/24 00:59:42;;;;;;;1.13;0.90;;;;;;;21.00;37.14;98320.66;13066431;22;20027;-55
2022/01/24 01:21:43;;;;;;;1.30;1.00;;;;;;;20.93;37.12;98311.03;13045746;22;20342;-54
2022/01/24 01:27:09;;;;;;;1.58;1.08;;;;;;;20.92;37.09;98303.19;13045309;22;20121;-54
2022/01/24 01:55:35;;;;;;;1.40;1.00;;;;;;;20.83;37.17;98305.75;13005754;22;20034;-55
2022/01/24 02:00:57;;;;;;;1.23;1.10;;;;;;;20.82;37.22;98303.34;13046412;22;20319;-55
2022/01/24 02:06:17;;;;;;;1.27;1.00;;;;;;;20.80;37.10;98305.56;13048258;22;20084;-54
2022/01/24 02:11:37;;;;;;;1.13;1.02;;;;;;;20.78;37.21;98303.13;13049236;22;20038;-55
2022/01/24 02:17:03;;;;;;;1.05;0.95;;;;;;;20.76;37.33;98299.09;13049060;22;20015;-54
2022/01/24 02:27:46;;;;;;;1.55;0.80;;;;;;;20.72;37.22;98294.28;13048316;22;20011;-54
2022/01/24 02:33:06;;;;;;;0.80;0.80;;;;;;;20.71;37.25;98291.88;13069902;22;20432;-54
2022/01/24 02:38:46;;;;;;;0.90;0.90;;;;;;;20.69;37.23;98297.56;13048865;22;20018;-55
2022/01/24 02:49:44;;;;;;;1.60;0.80;;;;;;;20.65;37.38;98312.00;13048351;22;20015;-54
2022/01/24 02:55:03;;;;;;;1.67;0.90;;;;;;;20.63;37.41;98306.09;13024779;22;20330;-54
2022/01/24 03:00:23;;;;;;;1.00;0.90;;;;;;;20.61;37.50;98306.38;13024576;22;20019;-55
2022/01/24 03:05:43;;;;;;;1.23;0.90;;;;;;;20.59;37.45;98302.31;13047514;22;20042;-55
2022/01/24 03:11:02;;;;;;;0.80;0.80;;;;;;;20.57;37.32;98313.44;13047200;22;20069;-55
2022/01/24 03:16:21;;;;;;;1.10;1.00;;;;;;;20.55;37.36;98308.31;13047257;22;20018;-55
2022/01/24 03:21:42;;;;;;;1.52;0.90;;;;;;;20.54;37.30;98308.59;13047276;22;20015;-54
2022/01/24 03:27:02;;;;;;;1.13;0.80;;;;;;;20.53;37.42;98298.88;13068622;22;20030;-54
2022/01/24 03:32:21;;;;;;;1.58;0.90;;;;;;;20.50;37.48;98292.16;13047636;22;20023;-55
2022/01/24 03:37:40;;;;;;;1.00;0.90;;;;;;;20.49;37.36;98297.88;13068071;22;20015;-55
2022/01/24 03:43:00;;;;;;;1.15;0.82;;;;;;;20.46;37.45;98293.81;13068105;22;20011;-53
2022/01/24 03:48:36;;;;;;;1.08;0.80;;;;;;;20.45;37.31;98299.56;13068401;22;20023;-54
2022/01/24 03:53:56;;;;;;;0.95;0.82;;;;;;;20.43;37.35;98299.84;13046478;22;20136;-55
2022/01/24 03:59:15;;;;;;;1.00;0.70;;;;;;;20.42;37.28;98310.97;13047317;22;20390;-55
2022/01/24 04:04:35;;;;;;;1.00;0.73;;;;;;;20.41;37.32;98304.75;13046584;22;20019;-55
2022/01/24 04:09:54;;;;;;;1.05;0.95;;;;;;;20.39;37.25;98300.75;13046784;22;20041;-55
2022/01/24 04:15:45;;;;;;;0.70;0.70;;;;;;;20.36;37.43;98302.09;13046817;22;20339;-55
2022/01/24 04:26:43;;;;;;;2.10;0.90;;;;;;;20.33;37.36;98294.59;13046553;22;20073;-54
2022/01/24 04:32:03;;;;;;;0.85;0.80;;;;;;;20.31;37.41;98294.88;13046072;22;20019;-55
2022/01/24 04:37:22;;;;;;;0.80;0.80;;;;;;;20.30;37.31;98295.16;13045926;22;20011;-55
2022/01/24 04:42:50;;;;;;;0.77;0.77;;;;;;;20.28;37.47;98289.25;13046396;22;20022;-53
2022/01/24 04:58:57;;;;;;;0.70;0.70;;;;;;;20.24;37.57;98307.97;13046145;22;20015;-55
2022/01/24 05:04:17;;;;;;;1.13;0.90;;;;;;;20.21;37.44;98305.84;13066827;22;20015;-55
2022/01/24 05:26:38;;;;;;;0.70;0.70;;;;;;;20.14;37.58;98316.22;13044770;22;20015;-54
2022/01/24 05:31:57;;;;;;;0.70;0.70;;;;;;;20.12;37.32;98319.22;13044968;22;20033;-54
2022/01/24 05:37:17;;;;;;;0.80;0.80;;;;;;;20.13;37.41;98320.00;13068805;22;20015;-55
2022/01/24 05:42:38;;;;;;;1.08;0.90;;;;;;;20.12;37.51;98331.94;13049205;22;20129;-53
2022/01/24 05:47:58;;;;;;;0.80;0.80;;;;;;;20.14;37.55;98324.34;13049789;22;20015;-53
2022/01/24 05:53:17;;;;;;;0.77;0.70;;;;;;;20.15;37.66;98334.88;13069773;22;20011;-53
2022/01/24 05:58:37;;;;;;;0.63;0.60;;;;;;;20.18;37.63;98335.38;13070713;22;20598;-55
2022/01/24 06:03:56;;;;;;;0.85;0.80;;;;;;;20.19;37.58;98334.28;13049658;22;20060;-53
2022/01/24 06:09:16;;;;;;;1.00;0.80;;;;;;;20.20;37.72;98328.56;13070199;22;20016;-55
2022/01/24 06:14:35;;;;;;;0.88;0.73;;;;;;;20.24;37.41;98339.63;13070530;22;20019;-55
2022/01/24 06:19:55;;;;;;;0.90;0.90;;;;;;;20.25;37.59;98342.06;13048811;22;20023;-54
2022/01/24 06:25:20;;;;;;;0.88;0.70;;;;;;;20.28;37.65;98341.44;13069739;22;20660;-55
2022/01/24 06:30:40;;;;;;;0.70;0.70;;;;;;;20.30;37.50;98347.38;13049346;22;20124;-54
2022/01/24 06:36:00;;;;;;;0.82;0.82;;;;;;;20.33;37.49;98351.44;13069986;22;20025;-55
2022/01/24 06:41:25;;;;;;;0.70;0.70;;;;;;;20.35;37.44;98355.44;13048739;22;20019;-55
2022/01/24 06:46:45;;;;;;;0.80;0.80;;;;;;;20.40;37.52;98359.16;13047742;22;20022;-55
2022/01/24 06:52:06;;;;;;;0.70;0.70;;;;;;;20.41;37.47;98375.13;13048308;22;20021;-54
2022/01/24 06:57:26;;;;;;;0.93;0.80;;;;;;;20.43;37.43;98372.13;13047596;22;20013;-55
2022/01/24 07:02:45;;;;;;;0.60;0.60;;;;;;;20.45;37.43;98381.56;13069218;22;20019;-55
2022/01/24 07:08:05;;;;;;;0.90;0.77;;;;;;;20.48;37.41;98391.00;13047480;22;20475;-55
2022/01/24 07:13:24;;;;;;;0.70;0.70;;;;;;;20.48;37.49;98388.28;13048153;22;20026;-53
2022/01/24 07:18:59;;;;;;;0.60;0.60;;;;;;;20.49;37.48;98396.13;13048049;22;20073;-55
2022/01/24 07:24:19;;;;;;;1.08;0.88;;;;;;;20.49;37.44;98404.25;13068990;22;20011;-55
2022/01/24 07:29:38;;;;;;;1.15;0.90;;;;;;;20.49;37.40;98398.84;13068218;22;20015;-52
2022/01/24 07:34:58;;;;;;;0.70;0.70;;;;;;;20.50;37.50;98394.22;13046850;22;20012;-55
2022/01/24 07:40:17;;;;;;;0.73;0.73;;;;;;;20.50;37.43;98399.63;13047426;22;20068;-54
2022/01/24 07:45:42;;;;;;;0.70;0.70;;;;;;;20.51;37.39;98396.63;13047296;22;20015;-54
2022/01/24 07:51:01;;;;;;;0.70;0.70;;;;;;;20.51;37.47;98393.94;13047819;22;20086;-54
2022/01/24 07:56:21;;;;;;;0.63;0.60;;;;;;;20.52;37.42;98397.44;13046420;22;20090;-55
2022/01/24 08:01:41;;;;;;;1.00;0.80;;;;;;;20.52;37.52;98405.56;13066327;22;20015;-54
2022/01/24 08:07:01;;;;;;;0.73;0.73;;;;;;;20.50;37.67;98405.03;13039842;22;20015;-55
2022/01/24 08:12:21;;;;;;;1.05;0.80;;;;;;;20.53;37.69;98405.28;13045593;22;20328;-54
2022/01/24 08:17:42;;;;;;;0.70;0.70;;;;;;;20.53;37.87;98407.97;13066104;22;20022;-55
2022/01/24 08:23:01;;;;;;;0.70;0.70;;;;;;;20.52;37.99;98416.38;13045051;22;20019;-54
2022/01/24 08:28:21;;;;;;;0.75;0.75;;;;;;;20.52;37.88;98424.50;13045093;22;20038;-55
2022/01/24 08:33:41;;;;;;;0.80;0.80;;;;;;;20.51;37.93;98420.22;13045142;22;20015;-55
2022/01/24 08:39:07;;;;;;;0.60;0.60;;;;;;;20.51;37.96;98428.31;13044707;22;20018;-55
2022/01/24 08:49:58;;;;;;;1.05;0.88;;;;;;;20.48;37.91;98426.19;13061041;22;20015;-55
2022/01/24 08:55:18;;;;;;;0.90;0.90;;;;;;;20.48;37.87;98423.47;13044580;22;20331;-54
2022/01/24 09:00:38;;;;;;;0.80;0.80;;;;;;;20.47;38.08;98422.69;13044241;22;20086;-55
2022/01/24 09:05:59;;;;;;;1.05;0.80;;;;;;;20.48;38.05;98426.19;13065495;22;20015;-54
2022/01/24 09:11:19;;;;;;;0.90;0.90;;;;;;;20.45;38.05;98434.91;13066110;22;20023;-54
2022/01/24 09:16:39;;;;;;;0.70;0.70;;;;;;;20.44;38.12;98436.00;13044435;22;20082;-52
2022/01/24 09:22:00;;;;;;;0.90;0.80;;;;;;;20.43;38.00;98435.19;13044010;22;20080;-55
2022/01/24 09:27:19;;;;;;;0.80;0.80;;;;;;;20.43;38.04;98439.81;13044498;22;20531;-54
2022/01/24 09:32:39;;;;;;;3.20;0.90;;;;;;;20.42;38.09;98430.06;13040921;22;20148;-54
2022/01/24 09:37:58;;;;;;;0.88;0.88;;;;;;;20.40;38.24;98427.63;13065868;22;20019;-54
2022/01/24 09:43:18;;;;;;;1.77;0.82;;;;;;;20.41;38.08;98444.72;13062457;22;20141;-54
2022/01/24 09:48:39;;;;;;;0.90;0.90;;;;;;;20.41;38.30;98440.09;13043775;22;20015;-54
2022/01/24 09:53:58;;;;;;;0.65;0.60;;;;;;;20.39;38.29;98430.66;13043913;22;20025;-53
2022/01/24 09:59:18;;;;;;;1.40;0.88;;;;;;;20.38;38.93;98431.75;13043557;22;20012;-53
2022/01/24 10:04:37;;;;;;;3.53;0.90;;;;;;;20.34;39.18;98426.91;13044080;22;20474;-54
2022/01/24 10:09:58;;;;;;;1.15;0.80;;;;;;;20.34;39.26;98426.91;13043799;22;20022;-54
2022/01/24 10:20:56;;;;;;;2.20;0.80;;;;;;;20.30;39.42;98420.44;13044584;22;20533;-53
2022/01/24 10:26:16;;;;;;;1.50;0.90;;;;;;;20.28;39.53;98419.13;13067949;22;20019;-53
2022/01/24 10:31:44;;;;;;;1.05;0.77;;;;;;;20.27;39.31;98420.25;13068135;22;20015;-54
2022/01/24 10:37:04;;;;;;;0.80;0.80;;;;;;;20.27;39.31;98417.53;13048013;22;20012;-54
2022/01/24 10:47:50;;;;;;;0.80;0.80;;;;;;;20.25;39.37;98425.16;13047242;22;20427;-54
2022/01/24 10:53:14;;;;;;;0.80;0.80;;;;;;;20.23;39.25;98420.00;13043043;22;20503;-55
2022/01/24 10:58:36;;;;;;;0.80;0.80;;;;;;;20.23;39.13;98411.91;13046944;22;20015;-55
2022/01/24 11:03:59;;;;;;;2.83;0.95;;;;;;;20.23;39.31;98414.59;13046636;22;20614;-55
2022/01/24 11:09:22;;;;;;;2.13;1.00;;;;;;;20.21;39.45;98410.56;13067036;22;20047;-54
2022/01/24 11:14:43;;;;;;;0.80;0.80;;;;;;;20.19;39.55;98405.47;13046000;22;20025;-56
2022/01/24 11:20:04;;;;;;;3.67;0.90;;;;;;;20.19;39.60;98404.63;13046705;22;20023;-55
2022/01/24 11:25:26;;;;;;;2.88;0.85;;;;;;;20.16;39.49;98406.03;13046578;22;20038;-54
2022/01/24 11:31:00;;;;;;;1.05;0.90;;;;;;;20.15;39.79;98393.59;13046872;22;20152;-54
2022/01/24 11:36:36;;;;;;;1.27;0.80;;;;;;;20.14;39.91;98397.38;13045896;22;20015;-54
2022/01/24 11:41:55;;;;;;;1.33;1.00;;;;;;;20.13;39.42;98401.19;13045810;22;20027;-56
2022/01/24 11:47:21;;;;;;;0.80;0.80;;;;;;;20.12;39.43;98394.16;13044783;22;20019;-54
2022/01/24 11:52:40;;;;;;;1.23;0.82;;;;;;;20.11;39.38;98395.25;13045585;22;20044;-55
2022/01/24 11:58:05;;;;;;;2.75;1.00;;;;;;;20.09;39.32;98395.56;13045542;22;20013;-53
2022/01/24 12:03:28;;;;;;;3.08;0.90;;;;;;;20.08;39.53;98391.22;13067047;22;20011;-54
2022/01/24 12:09:00;;;;;;;1.60;1.20;;;;;;;20.08;39.76;98387.72;13043970;22;20019;-54
2022/01/24 12:14:36;;;;;;;2.17;1.05;;;;;;;20.07;39.67;98391.50;13044772;22;20026;-54
2022/01/24 12:19:55;;;;;;;1.92;1.02;;;;;;;20.06;39.81;98389.91;13044651;22;20019;-54
2022/01/24 12:25:15;;;;;;;1.38;1.05;;;;;;;20.05;40.03;98381.00;13044283;22;20015;-53
2022/01/24 12:30:57;;;;;;;1.30;0.85;;;;;;;20.02;40.59;98378.84;13060107;22;20019;-55
2022/01/24 12:36:36;;;;;;;3.05;1.15;;;;;;;20.01;40.11;98369.13;13043661;22;20011;-54
2022/01/24 12:42:01;;;;;;;1.35;1.10;;;;;;;19.99;40.00;98368.59;13042090;22;20023;-53
2022/01/24 12:47:28;;;;;;;1.30;1.15;;;;;;;19.99;40.21;98365.09;13043249;22;20043;-54
2022/01/24 12:52:49;;;;;;;1.30;1.10;;;;;;;19.99;40.45;98365.09;13065417;22;20022;-51
2022/01/24 12:58:09;;;;;;;1.45;1.10;;;;;;;19.96;40.59;98355.69;13064858;22;20090;-54
2022/01/24 13:03:50;;;;;;;2.35;0.95;;;;;;;19.94;40.97;98361.38;13065616;22;20090;-54
2022/01/24 13:09:14;;;;;;;2.58;0.90;;;;;;;19.93;40.78;98357.06;13043106;22;20076;-54
2022/01/24 13:25:37;;;;;;;1.10;1.00;;;;;;;19.91;40.82;98358.44;13044020;22;20491;-54
2022/01/24 13:31:00;;;;;;;1.45;1.25;;;;;;;19.88;40.85;98357.13;13043372;22;20022;-54
2022/01/24 13:36:21;;;;;;;0.85;0.85;;;;;;;19.88;41.03;98351.72;13064866;22;20019;-54
2022/01/24 13:41:40;;;;;;;1.23;1.13;;;;;;;19.86;40.82;98353.91;13041695;22;20019;-52
2022/01/24 13:47:07;;;;;;;2.30;1.30;;;;;;;19.83;40.70;98349.03;13064482;22;20064;-54
2022/01/24 13:52:29;;;;;;;1.10;1.00;;;;;;;19.82;40.89;98344.75;13033471;22;20772;-55
2022/01/24 13:57:52;;;;;;;1.63;1.08;;;;;;;19.83;40.77;98348.25;13011483;22;20443;-54
2022/01/24 14:03:11;;;;;;;1.70;1.27;;;;;;;19.82;41.04;98346.66;13047760;22;20073;-54
2022/01/24 14:08:31;;;;;;;1.25;1.00;;;;;;;19.78;41.22;98346.41;13068638;22;20015;-54
2022/01/24 14:14:03;;;;;;;1.33;0.95;;;;;;;19.78;41.14;98346.41;13068267;22;20057;-54
2022/01/24 14:19:32;;;;;;;1.40;0.88;;;;;;;19.77;41.37;98342.09;13046401;22;20019;-53
2022/01/24 14:24:57;;;;;;;1.77;1.00;;;;;;;19.74;41.52;98346.19;13047348;22;20015;-55
2022/01/24 14:30:26;;;;;;;2.00;1.05;;;;;;;19.74;41.58;98345.38;13046828;22;20727;-54
2022/01/24 14:35:56;;;;;;;;;;;;;;;19.73;42.32;98343.75;13068562;22;20019;-54
2022/01/24 14:41:48;;;;;;;1.70;1.08;;;;;;;19.73;41.81;98335.66;13067032;22;19968;-53
2022/01/24 14:47:08;;;;;;;72.78;19.13;;;;;;;19.73;42.39;98332.94;13047880;22;20018;-54
2022/01/24 14:52:33;;;;;;;70.38;18.42;;;;;;;19.73;43.74;98328.34;13046758;22;20022;-53
2022/01/24 14:57:53;;;;;;;42.42;11.32;;;;;;;19.74;44.14;98326.47;13041805;22;20477;-55
2022/01/24 15:03:12;;;;;;;33.17;9.98;;;;;;;19.75;44.12;98330.75;13046186;22;20347;-53
2022/01/24 15:08:31;;;;;;;29.75;8.75;;;;;;;19.77;45.44;98333.19;13044985;22;20026;-53
2022/01/24 15:13:59;;;;;;;27.77;7.28;;;;;;;19.80;46.46;98338.00;13045324;22;20068;-53
2022/01/24 15:30:35;;;;;;;4.35;3.08;;;;;;;18.73;36.16;98337.88;13066430;22;20050;-54
2022/01/24 15:35:55;;;;;;;6.95;3.20;;;;;;;-146.19;100.00;65364.44;13046993;22;20015;-52
2022/01/24 15:41:15;;;;;;;6.32;3.10;;;;;;;19.04;39.46;98346.56;13040853;22;20015;-52
2022/01/24 15:52:04;;;;;;;5.80;3.50;;;;;;;19.44;39.98;98354.56;13048635;22;20015;-54
2022/01/24 15:57:42;;;;;;;6.20;2.75;;;;;;;19.55;40.10;98348.00;13049444;22;20090;-54
2022/01/24 16:03:04;;;;;;;6.80;3.23;;;;;;;19.64;40.33;98350.84;13048960;22;20023;-55
2022/01/24 16:08:24;;;;;;;5.65;3.00;;;;;;;19.69;40.55;98350.81;13048613;22;20019;-54
2022/01/24 16:13:43;;;;;;;6.07;3.00;;;;;;;19.74;40.77;98345.38;13047405;22;20016;-53
2022/01/24 16:19:04;;;;;;;5.88;3.00;;;;;;;19.79;40.54;98347.22;13048053;22;20015;-53
2022/01/24 16:29:51;;;;;;;5.07;3.00;;;;;;;19.87;40.95;98355.50;13047678;22;20019;-53
2022/01/24 16:35:10;;;;;;;4.40;2.55;;;;;;;19.89;41.37;98358.72;13047105;22;20034;-54
2022/01/24 16:40:37;;;;;;;4.95;2.78;;;;;;;19.93;41.27;98348.94;13047158;22;20021;-54
2022/01/24 16:51:24;;;;;;;4.43;2.70;;;;;;;20.03;41.00;98363.44;13069305;22;20042;-54
2022/01/24 16:56:46;;;;;;;4.07;2.40;;;;;;;20.09;40.97;98373.09;13047816;22;20011;-55
2022/01/24 17:02:07;;;;;;;6.07;2.38;;;;;;;20.15;41.09;98366.53;13048373;22;20027;-53
2022/01/24 17:07:27;;;;;;;5.70;2.67;;;;;;;20.21;42.19;98367.25;13046406;22;20113;-55
2022/01/24 17:12:48;;;;;;;6.85;2.80;;;;;;;20.27;42.38;98369.63;13065866;22;20022;-53
2022/01/24 17:18:07;;;;;;;6.20;2.88;;;;;;;20.32;42.25;98369.53;13046470;22;20011;-54
2022/01/24 17:23:28;;;;;;;4.88;2.30;;;;;;;20.40;42.31;98378.13;13065871;22;20019;-54
2022/01/24 17:28:48;;;;;;;3.92;2.30;;;;;;;20.45;42.43;98375.34;13063682;22;20023;-51
2022/01/24 17:34:11;;;;;;;4.57;2.05;;;;;;;20.48;42.63;98382.88;13043076;22;20016;-53
2022/01/24 17:39:33;;;;;;;5.03;2.53;;;;;;;20.52;42.56;98381.19;13042764;22;20015;-53
2022/01/24 17:44:52;;;;;;;4.65;2.53;;;;;;;20.56;42.67;98371.38;13064360;22;20382;-52
2022/01/24 17:50:12;;;;;;;2.63;2.10;;;;;;;20.60;42.84;98385.19;13044180;22;20374;-53
2022/01/24 17:55:32;;;;;;;4.07;2.20;;;;;;;20.64;42.74;98369.97;13042743;22;20011;-53
2022/01/24 18:00:53;;;;;;;2.72;2.13;;;;;;;20.66;42.91;98379.41;13043412;22;20035;-54
2022/01/24 18:06:13;;;;;;;3.13;2.17;;;;;;;20.68;43.51;98385.34;13042254;22;20106;-54
2022/01/24 18:11:32;;;;;;;4.45;1.95;;;;;;;20.69;43.36;98381.53;13040228;22;20023;-51
2022/01/24 18:16:52;;;;;;;4.35;2.10;;;;;;;20.71;43.60;98379.31;13043472;22;20361;-54
2022/01/24 18:22:12;;;;;;;3.67;1.95;;;;;;;20.75;43.63;98376.84;13064161;22;20019;-51
2022/01/24 18:27:32;;;;;;;4.90;2.10;;;;;;;20.76;43.63;98378.47;13039108;22;20019;-56
2022/01/24 18:32:52;;;;;;;2.72;1.80;;;;;;;20.76;44.19;98373.03;13043519;22;20436;-56
2022/01/24 18:38:11;;;;;;;2.47;1.85;;;;;;;20.80;43.82;98370.56;13043523;22;20021;-54
2022/01/24 18:43:34;;;;;;;3.35;1.80;;;;;;;20.79;43.99;98368.94;13064563;22;20015;-53
2022/01/24 18:48:54;;;;;;;4.35;1.90;;;;;;;20.83;43.89;98375.38;13046960;22;20025;-53
2022/01/24 18:54:15;;;;;;;4.45;2.15;;;;;;;20.83;43.90;98376.16;13045607;22;20090;-56
2022/01/24 18:59:36;;;;;;;4.22;2.03;;;;;;;20.84;43.91;98379.72;13065537;22;20019;-54
2022/01/24 19:04:56;;;;;;;2.90;1.80;;;;;;;20.83;44.26;98375.38;13066914;22;20094;-55
2022/01/24 19:10:16;;;;;;;5.75;1.85;;;;;;;20.85;44.04;98370.47;13046561;22;20046;-56
2022/01/24 19:15:36;;;;;;;2.90;1.77;;;;;;;20.85;44.16;98367.75;13043889;22;20030;-54
2022/01/24 19:26:34;;;;;;;4.97;3.37;;;;;;;20.84;41.91;98368.88;13045615;22;20015;-54
2022/01/24 19:31:53;;;;;;;3.28;2.40;;;;;;;20.85;43.18;98357.72;13047042;22;20022;-56
2022/01/24 19:37:13;;;;;;;4.97;2.30;;;;;;;20.85;43.16;98362.34;13067602;22;20027;-54
2022/01/24 19:42:34;;;;;;;5.43;2.10;;;;;;;20.85;43.32;98356.91;13045696;22;20022;-55
2022/01/24 19:47:55;;;;;;;2.47;2.20;;;;;;;20.85;43.43;98359.63;13045107;22;20015;-55
2022/01/24 19:53:16;;;;;;;5.95;2.30;;;;;;;20.84;43.42;98366.97;13065744;22;20011;-54
2022/01/24 19:58:41;;;;;;;4.90;2.15;;;;;;;20.83;43.48;98370.75;13067041;22;20068;-55
2022/01/24 20:04:00;;;;;;;5.00;2.40;;;;;;;20.83;43.80;98372.66;13046305;22;20381;-55
2022/01/24 20:09:21;;;;;;;3.53;2.17;;;;;;;20.83;43.74;98361.84;13043864;22;20019;-55
2022/01/24 20:14:40;;;;;;;2.75;2.10;;;;;;;20.83;43.73;98369.97;13046482;22;20019;-54
2022/01/24 20:19:59;;;;;;;6.40;2.70;;;;;;;20.82;43.46;98369.16;13044378;22;20060;-54
2022/01/24 20:25:21;;;;;;;6.30;2.45;;;;;;;20.81;43.55;98375.66;13066012;22;20011;-55
2022/01/24 20:30:40;;;;;;;4.57;2.33;;;;;;;20.80;43.53;98373.28;13045308;22;20026;-53
2022/01/24 20:36:00;;;;;;;6.40;2.58;;;;;;;20.80;43.62;98373.28;13044948;22;20034;-55
2022/01/24 20:41:20;;;;;;;6.05;2.58;;;;;;;20.80;43.54;98382.19;13043447;22;20015;-52
2022/01/24 20:46:40;;;;;;;5.55;2.70;;;;;;;20.77;43.51;98380.06;13066082;22;20549;-55
2022/01/24 20:52:00;;;;;;;19.92;6.38;;;;;;;20.77;43.78;98382.78;13045154;22;20098;-54
2022/01/24 20:57:20;;;;;;;11.32;4.82;;;;;;;20.78;44.13;98383.56;13042762;22;20019;-53
2022/01/24 21:02:40;;;;;;;13.90;4.35;;;;;;;20.77;44.25;98382.78;13041865;22;20402;-55
2022/01/24 21:07:59;;;;;;;12.20;5.03;;;;;;;20.76;44.30;98377.63;13040704;22;20077;-53
2022/01/24 21:13:30;;;;;;;14.85;4.65;;;;;;;20.77;44.31;98373.84;13041944;22;20023;-54
2022/01/24 21:18:51;;;;;;;17.50;5.03;;;;;;;20.76;44.43;98374.94;13062929;22;20086;-54
2022/01/24 21:24:10;;;;;;;14.25;4.68;;;;;;;20.75;44.29;98363.31;13039305;22;20026;-55
2022/01/24 21:29:29;;;;;;;11.32;4.80;;;;;;;20.74;44.30;98362.50;13019298;22;20377;-54
2022/01/24 21:40:16;;;;;;;13.45;4.85;;;;;;;20.71;44.35;98357.66;13040501;22;20017;-54
2022/01/24 21:45:38;;;;;;;12.52;5.15;;;;;;;20.71;44.31;98359.56;13041099;22;20441;-54
2022/01/24 21:50:58;;;;;;;13.55;4.88;;;;;;;20.71;44.56;98360.38;13037371;22;20828;-55
2022/01/24 21:56:17;;;;;;;13.55;4.82;;;;;;;20.71;44.47;98368.50;13038745;22;20022;-55
2022/01/24 22:01:37;;;;;;;9.30;4.10;;;;;;;20.70;44.30;98355.28;13041254;22;20024;-55
2022/01/24 22:07:03;;;;;;;18.33;4.82;;;;;;;20.68;44.35;98347.44;13040744;22;20347;-55
2022/01/24 22:12:23;;;;;;;9.18;4.22;;;;;;;20.68;44.66;98352.03;13042848;22;20082;-56
2022/01/24 22:17:43;;;;;;;9.00;4.45;;;;;;;20.67;44.53;98356.63;13044119;22;20451;-55
2022/01/24 22:23:29;;;;;;;9.30;4.00;;;;;;;20.67;44.63;98355.84;13068876;22;20031;-55
2022/01/24 22:29:01;;;;;;;6.88;3.53;;;;;;;20.66;44.35;98363.16;13044428;22;20011;-55
2022/01/24 22:34:21;;;;;;;7.10;3.45;;;;;;;20.64;44.24;98359.94;13045616;22;20117;-54
2022/01/24 22:39:40;;;;;;;7.93;3.58;;;;;;;20.63;44.44;98354.81;13067121;22;20023;-56
2022/01/24 22:45:00;;;;;;;9.43;3.88;;;;;;;20.62;44.12;98354.03;13046843;22;20025;-54
2022/01/24 22:50:19;;;;;;;14.23;3.30;;;;;;;20.60;44.08;98353.50;13067346;22;20019;-54
2022/01/24 22:55:39;;;;;;;7.13;3.50;;;;;;;20.59;44.08;98340.22;13066791;22;20019;-55
2022/01/24 23:01:03;;;;;;;8.15;3.80;;;;;;;20.57;44.11;98353.25;13046017;22;20015;-53
2022/01/24 23:06:23;;;;;;;7.95;3.45;;;;;;;20.55;44.23;98348.94;13045030;22;20019;-55
2022/01/24 23:11:43;;;;;;;6.57;3.30;;;;;;;20.54;44.13;98347.34;13067127;22;20019;-56
2022/01/24 23:22:42;;;;;;;5.20;3.40;;;;;;;20.50;44.08;98342.78;13048239;22;20015;-55
2022/01/24 23:28:07;;;;;;;4.95;2.95;;;;;;;20.49;43.89;98333.06;13047769;22;20018;-55
2022/01/24 23:33:35;;;;;;;6.07;3.20;;;;;;;20.48;43.96;98328.72;13046574;22;20016;-55
2022/01/24 23:44:16;;;;;;;5.70;3.10;;;;;;;20.44;43.72;98325.00;13047550;22;20015;-55
2022/01/24 23:49:36;;;;;;;5.38;3.28;;;;;;;20.43;43.75;98320.72;13047695;22;20323;-55
2022/01/24 23:54:56;;;;;;;7.50;3.45;;;;;;;20.41;43.74;98321.00;13046775;22;20019;-55
